Time;durP1;ratioP1;P1;durP2;ratioP2;P2;SDS_P1;SDS_P2;PMS_P1;PMS_P2;Temp;Humidity;BMP_temperature;BMP_pressure;BME280_temperature;BME280_humidity;BME280_pressure;Samples;Min_cycle;Max_cycle;Signal;HPM_P1;HPM_P2
2021/03/16 00:00:57;;;;;;;2.33;1.97;;;3.60;99.90;;;;;;5097188;28;20466;-81
2021/03/16 00:03:23;;;;;;;1.77;1.67;;;3.60;99.90;;;;;;5097175;28;20430;-83
2021/03/16 00:05:50;;;;;;;2.23;1.80;;;3.70;99.90;;;;;;5097109;28;20761;-78
2021/03/16 00:08:16;;;;;;;3.33;1.70;;;3.70;99.90;;;;;;5096652;28;20840;-77
2021/03/16 00:10:42;;;;;;;1.93;1.67;;;3.70;99.90;;;;;;5097160;28;20428;-77
2021/03/16 00:13:10;;;;;;;3.83;1.80;;;3.70;99.90;;;;;;5097215;28;20436;-77
2021/03/16 00:15:36;;;;;;;10.13;2.10;;;3.80;99.90;;;;;;5096513;28;20428;-77
2021/03/16 00:18:03;;;;;;;2.40;2.00;;;3.80;99.90;;;;;;5096840;28;20443;-77
2021/03/16 00:20:30;;;;;;;4.83;2.00;;;3.80;99.90;;;;;;5096837;28;20435;-77
2021/03/16 00:22:56;;;;;;;2.13;1.93;;;3.80;99.90;;;;;;5096745;28;20505;-77
2021/03/16 00:25:22;;;;;;;3.37;1.87;;;3.80;99.90;;;;;;5096350;28;20444;-77
2021/03/16 00:27:49;;;;;;;1.90;1.80;;;3.80;99.90;;;;;;5096551;28;20478;-77
2021/03/16 00:30:17;;;;;;;4.07;1.60;;;3.80;99.90;;;;;;5096510;28;20571;-77
2021/03/16 00:32:43;;;;;;;3.93;1.40;;;3.80;99.90;;;;;;5096532;28;20526;-77
2021/03/16 00:35:10;;;;;;;4.47;2.03;;;3.80;99.90;;;;;;5096473;28;20501;-77
2021/03/16 00:37:36;;;;;;;3.47;1.90;;;3.70;99.90;;;;;;5096319;28;20496;-77
2021/03/16 00:40:03;;;;;;;5.30;2.03;;;3.70;99.90;;;;;;5096075;28;20939;-77
2021/03/16 00:42:30;;;;;;;1.67;1.57;;;3.80;99.90;;;;;;5096331;28;20448;-77
2021/03/16 00:44:58;;;;;;;4.50;1.67;;;3.80;99.90;;;;;;5096272;28;20455;-77
2021/03/16 00:47:25;;;;;;;6.03;2.30;;;3.70;99.90;;;;;;5096135;28;20493;-77
2021/03/16 00:49:51;;;;;;;4.10;1.80;;;3.80;99.90;;;;;;5096110;28;20537;-77
2021/03/16 00:52:17;;;;;;;2.10;1.90;;;3.80;99.90;;;;;;5095654;28;21011;-77
2021/03/16 00:54:43;;;;;;;2.57;1.60;;;3.70;99.90;;;;;;5095771;28;20448;-77
2021/03/16 00:57:09;;;;;;;4.00;1.67;;;3.70;99.90;;;;;;5095998;28;20529;-77
2021/03/16 00:59:36;;;;;;;5.77;2.03;;;3.80;99.90;;;;;;5096003;28;20456;-77
2021/03/16 01:02:02;;;;;;;1.63;1.30;;;3.70;99.90;;;;;;5095939;28;20444;-77
2021/03/16 01:04:29;;;;;;;3.80;1.60;;;3.80;99.90;;;;;;5095904;28;20448;-77
2021/03/16 01:06:55;;;;;;;1.73;1.63;;;3.70;99.90;;;;;;5095805;28;20472;-77
2021/03/16 01:09:22;;;;;;;1.80;1.50;;;3.70;99.90;;;;;;5095299;28;20480;-77
2021/03/16 01:11:48;;;;;;;4.57;1.60;;;3.70;99.90;;;;;;5095138;28;20542;-78
2021/03/16 01:14:14;;;;;;;2.50;1.70;;;3.70;99.90;;;;;;5095693;28;20447;-77
2021/03/16 01:16:40;;;;;;;4.00;2.50;;;3.70;99.90;;;;;;5095585;28;20495;-77
2021/03/16 01:19:06;;;;;;;4.20;1.97;;;3.70;99.90;;;;;;5095311;28;20943;-77
2021/03/16 01:21:34;;;;;;;3.63;1.77;;;3.70;99.90;;;;;;5095585;28;20467;-77
2021/03/16 01:24:00;;;;;;;3.03;1.57;;;3.80;99.90;;;;;;5095546;28;20447;-78
2021/03/16 01:26:26;;;;;;;2.50;1.80;;;3.80;99.90;;;;;;5095430;28;20471;-77
2021/03/16 01:28:52;;;;;;;3.40;2.00;;;3.70;99.90;;;;;;5095374;28;20475;-77
2021/03/16 01:31:19;;;;;;;10.07;2.07;;;3.70;99.90;;;;;;5095044;28;20454;-77
2021/03/16 01:33:45;;;;;;;2.43;1.70;;;3.70;99.90;;;;;;5095037;28;20812;-77
2021/03/16 01:36:11;;;;;;;2.53;2.33;;;3.70;99.90;;;;;;5095190;28;20471;-77
2021/03/16 01:38:38;;;;;;;5.90;2.07;;;3.60;99.90;;;;;;5095232;28;20455;-77
2021/03/16 01:41:05;;;;;;;7.97;2.10;;;3.60;99.90;;;;;;5095189;28;20448;-77
2021/03/16 01:43:32;;;;;;;2.27;2.07;;;3.60;99.90;;;;;;5095165;28;20447;-77
2021/03/16 01:45:59;;;;;;;2.67;2.20;;;3.50;99.90;;;;;;5094735;28;20986;-77
2021/03/16 01:48:29;;;;;;;5.63;2.17;;;3.50;99.90;;;;;;5094696;28;20440;-77
2021/03/16 01:50:56;;;;;;;3.37;2.07;;;3.50;99.90;;;;;;5094820;28;20483;-77
2021/03/16 01:53:22;;;;;;;3.90;2.17;;;3.60;99.90;;;;;;5095000;28;20459;-77
2021/03/16 01:55:51;;;;;;;2.50;2.00;;;3.60;99.90;;;;;;5094558;28;20448;-77
2021/03/16 01:58:17;;;;;;;4.90;1.50;;;3.60;99.90;;;;;;5094848;28;20471;-77
2021/03/16 02:00:44;;;;;;;2.80;2.17;;;3.60;99.90;;;;;;5094874;28;20451;-77
2021/03/16 02:03:12;;;;;;;4.50;2.40;;;3.50;99.90;;;;;;5094946;28;20448;-77
2021/03/16 02:05:39;;;;;;;4.63;2.00;;;3.60;99.90;;;;;;5094663;28;20823;-77
2021/03/16 02:08:11;;;;;;;7.03;1.80;;;3.50;99.90;;;;;;5094376;28;20935;-77
2021/03/16 02:10:46;;;;;;;4.20;1.90;;;3.50;99.90;;;;;;5095141;28;20498;-77
2021/03/16 02:13:24;;;;;;;5.40;1.93;;;3.50;99.90;;;;;;5094656;28;20431;-83
2021/03/16 02:15:57;;;;;;;2.07;1.73;;;3.50;99.90;;;;;;5094516;28;20435;-84
2021/03/16 02:18:29;;;;;;;5.43;2.30;;;3.50;99.90;;;;;;5094510;28;20424;-84
2021/03/16 02:21:05;;;;;;;3.53;2.00;;;3.50;99.90;;;;;;5094318;28;20420;-84
2021/03/16 02:23:46;;;;;;;7.23;2.60;;;3.60;99.90;;;;;;5094452;28;20412;-84
2021/03/16 02:26:21;;;;;;;2.97;2.40;;;3.60;99.90;;;;;;5094331;28;20466;-84
2021/03/16 02:29:06;;;;;;;2.50;2.30;;;3.60;99.90;;;;;;5094353;28;20505;-84
2021/03/16 02:31:34;;;;;;;4.60;2.70;;;3.60;99.90;;;;;;5094009;28;20795;-84
2021/03/16 02:34:04;;;;;;;3.03;1.93;;;3.60;99.90;;;;;;5094267;28;20513;-84
2021/03/16 02:36:32;;;;;;;3.37;2.73;;;3.60;99.90;;;;;;5094141;28;20479;-84
2021/03/16 02:39:01;;;;;;;3.00;2.10;;;3.60;99.90;;;;;;5094117;28;20493;-84
2021/03/16 02:41:31;;;;;;;2.17;1.97;;;3.60;99.90;;;;;;5094077;28;20447;-84
2021/03/16 02:43:58;;;;;;;2.57;2.37;;;3.60;99.90;;;;;;5093770;28;20939;-84
2021/03/16 02:46:26;;;;;;;4.00;2.83;;;3.60;99.90;;;;;;5093931;28;20475;-84
2021/03/16 02:48:55;;;;;;;3.50;2.53;;;3.60;99.90;;;;;;5093859;28;20482;-84
2021/03/16 02:51:22;;;;;;;4.27;2.10;;;3.60;99.90;;;;;;5093639;28;20533;-84
2021/03/16 02:53:50;;;;;;;3.10;2.07;;;3.60;99.90;;;;;;5093884;28;20444;-82
2021/03/16 02:56:18;;;;;;;4.60;2.53;;;3.60;99.90;;;;;;5093723;28;20472;-81
2021/03/16 02:58:46;;;;;;;3.37;3.00;;;3.60;99.90;;;;;;5093475;28;20800;-81
2021/03/16 03:01:15;;;;;;;2.23;1.97;;;3.50;99.90;;;;;;5093749;28;20444;-81
2021/03/16 03:03:44;;;;;;;4.97;2.70;;;3.60;99.90;;;;;;5093739;28;20444;-81
2021/03/16 03:06:13;;;;;;;3.23;2.20;;;3.60;99.90;;;;;;5093364;28;20974;-81
2021/03/16 03:08:42;;;;;;;2.00;1.80;;;3.60;99.90;;;;;;5093609;28;20479;-81
2021/03/16 03:11:09;;;;;;;7.83;2.60;;;3.60;99.90;;;;;;5093606;28;20471;-81
2021/03/16 03:13:36;;;;;;;6.67;1.97;;;3.60;99.90;;;;;;5093565;28;20448;-81
2021/03/16 03:16:02;;;;;;;4.10;2.70;;;3.70;99.90;;;;;;5093159;28;20979;-81
2021/03/16 03:18:31;;;;;;;3.37;2.20;;;3.60;99.90;;;;;;5093202;28;20444;-81
2021/03/16 03:20:57;;;;;;;3.50;2.43;;;3.50;99.90;;;;;;5093489;28;20451;-81
2021/03/16 03:23:27;;;;;;;2.90;2.60;;;3.50;99.90;;;;;;5093444;28;20443;-81
2021/03/16 03:25:57;;;;;;;6.17;2.57;;;3.40;99.90;;;;;;5093447;28;20435;-81
2021/03/16 03:28:26;;;;;;;6.43;2.13;;;3.50;99.90;;;;;;5093378;28;20485;-81
2021/03/16 03:30:54;;;;;;;2.50;2.00;;;3.40;99.90;;;;;;5093102;28;20811;-81
2021/03/16 03:33:24;;;;;;;6.50;2.30;;;3.40;99.90;;;;;;5094305;28;20448;-81
2021/03/16 03:35:51;;;;;;;3.67;2.17;;;3.40;99.90;;;;;;5097236;28;20451;-81
2021/03/16 03:38:19;;;;;;;2.50;1.90;;;3.40;99.90;;;;;;5097565;28;20447;-81
2021/03/16 03:40:46;;;;;;;5.60;1.90;;;3.40;99.90;;;;;;5097193;28;20818;-81
2021/03/16 03:43:14;;;;;;;2.57;2.37;;;3.40;99.90;;;;;;5097162;28;20452;-81
2021/03/16 03:45:42;;;;;;;2.80;2.00;;;3.40;99.90;;;;;;5097099;28;20950;-84
2021/03/16 03:48:13;;;;;;;5.43;2.67;;;3.50;99.90;;;;;;5097454;28;20451;-84
2021/03/16 03:50:41;;;;;;;4.47;1.67;;;3.40;99.90;;;;;;5097113;28;20475;-83
2021/03/16 03:53:09;;;;;;;2.67;2.20;;;3.50;99.90;;;;;;5097399;28;20478;-84
2021/03/16 03:55:36;;;;;;;3.23;2.70;;;3.40;99.90;;;;;;5096952;28;20826;-84
2021/03/16 03:58:04;;;;;;;2.77;2.20;;;3.40;99.90;;;;;;5096963;28;21008;-83
2021/03/16 04:00:32;;;;;;;3.30;2.30;;;3.30;99.90;;;;;;5097205;28;20444;-84
2021/03/16 04:02:59;;;;;;;3.33;2.00;;;3.40;99.90;;;;;;5096818;28;20447;-84
2021/03/16 04:05:26;;;;;;;7.67;2.47;;;3.30;99.90;;;;;;5097059;28;20443;-84
2021/03/16 04:07:54;;;;;;;4.93;2.27;;;3.30;99.90;;;;;;5096958;28;20843;-84
2021/03/16 04:10:22;;;;;;;5.30;2.40;;;3.40;99.90;;;;;;5096572;28;20475;-84
2021/03/16 04:12:48;;;;;;;5.27;1.93;;;3.40;99.90;;;;;;5096963;28;20444;-84
2021/03/16 04:15:16;;;;;;;4.87;1.63;;;3.40;99.90;;;;;;5096891;28;20448;-84
2021/03/16 04:17:44;;;;;;;6.37;2.00;;;3.40;99.90;;;;;;5096821;28;20477;-84
2021/03/16 04:20:12;;;;;;;4.53;1.60;;;3.40;99.90;;;;;;5096504;28;20449;-84
2021/03/16 04:22:39;;;;;;;5.27;1.63;;;3.40;99.90;;;;;;5096517;28;20947;-84
2021/03/16 04:25:07;;;;;;;3.00;2.20;;;3.50;99.90;;;;;;5096779;28;20444;-84
2021/03/16 04:27:34;;;;;;;1.70;1.60;;;3.50;99.90;;;;;;5096638;28;20521;-84
2021/03/16 04:30:01;;;;;;;3.30;1.93;;;3.50;99.90;;;;;;5096585;28;20520;-84
2021/03/16 04:32:27;;;;;;;3.40;1.93;;;3.40;99.90;;;;;;5096246;28;20832;-84
2021/03/16 04:34:53;;;;;;;2.20;1.40;;;3.50;99.90;;;;;;5096561;28;20556;-84
2021/03/16 04:37:20;;;;;;;3.80;1.50;;;3.50;99.90;;;;;;5096096;28;20459;-84
2021/03/16 04:39:46;;;;;;;2.50;1.40;;;3.50;99.90;;;;;;5096088;28;20930;-84
2021/03/16 04:42:12;;;;;;;1.40;1.30;;;3.50;99.90;;;;;;5096374;28;20440;-84
2021/03/16 04:44:39;;;;;;;3.77;1.40;;;3.50;99.90;;;;;;5096284;28;20592;-84
2021/03/16 04:47:06;;;;;;;3.33;1.20;;;3.50;99.90;;;;;;5096219;28;20460;-84
2021/03/16 04:49:32;;;;;;;2.30;1.30;;;3.50;99.90;;;;;;5095932;28;20998;-84
2021/03/16 04:51:58;;;;;;;2.00;1.20;;;3.50;99.90;;;;;;5095693;28;20479;-84
2021/03/16 04:54:24;;;;;;;5.20;1.20;;;3.40;99.90;;;;;;5096132;28;20452;-84
2021/03/16 04:56:51;;;;;;;2.50;1.30;;;3.40;99.90;;;;;;5095742;28;20464;-84
2021/03/16 04:59:17;;;;;;;2.53;1.80;;;3.30;99.90;;;;;;5095788;28;20804;-84
2021/03/16 05:01:44;;;;;;;3.50;1.33;;;3.30;99.90;;;;;;5095679;28;20448;-84
2021/03/16 05:04:11;;;;;;;2.87;1.13;;;3.40;99.90;;;;;;5095953;28;20451;-84
2021/03/16 05:06:37;;;;;;;3.67;1.50;;;3.40;99.90;;;;;;5095532;28;20524;-84
2021/03/16 05:09:03;;;;;;;3.87;1.10;;;3.40;99.90;;;;;;5095809;28;20489;-84
2021/03/16 05:11:32;;;;;;;1.20;1.07;;;3.50;99.90;;;;;;5095837;28;20448;-83
2021/03/16 05:13:58;;;;;;;4.57;1.40;;;3.40;99.90;;;;;;5095767;28;20452;-84
2021/03/16 05:16:24;;;;;;;1.30;1.00;;;3.40;99.90;;;;;;5095669;28;20460;-84
2021/03/16 05:18:51;;;;;;;1.50;1.20;;;3.30;99.90;;;;;;5095380;28;20444;-84
2021/03/16 05:21:18;;;;;;;4.50;1.60;;;3.30;99.90;;;;;;5095306;28;20951;-84
2021/03/16 05:23:44;;;;;;;2.53;1.47;;;3.30;99.90;;;;;;5095574;28;20456;-84
2021/03/16 05:26:10;;;;;;;2.50;1.47;;;3.30;99.90;;;;;;5095468;28;20468;-84
2021/03/16 05:28:36;;;;;;;3.33;1.53;;;3.30;99.90;;;;;;5095441;28;20454;-84
2021/03/16 05:31:02;;;;;;;2.83;1.53;;;3.30;99.90;;;;;;5095469;28;20857;-84
2021/03/16 05:33:29;;;;;;;3.80;1.70;;;3.40;99.90;;;;;;5095385;28;20467;-84
2021/03/16 05:35:56;;;;;;;6.13;1.60;;;3.40;99.90;;;;;;5095282;28;20447;-84
2021/03/16 05:38:22;;;;;;;6.10;1.40;;;3.40;99.90;;;;;;5095303;28;20451;-84
2021/03/16 05:40:49;;;;;;;2.40;1.57;;;3.40;99.90;;;;;;5095256;28;20436;-84
2021/03/16 05:43:17;;;;;;;1.93;1.10;;;3.30;99.90;;;;;;5095149;28;20452;-84
2021/03/16 05:45:44;;;;;;;1.30;1.20;;;3.30;99.90;;;;;;5095118;28;20446;-84
2021/03/16 05:48:11;;;;;;;6.37;1.73;;;3.30;99.90;;;;;;5095107;28;20426;-82
2021/03/16 05:50:38;;;;;;;1.10;1.00;;;3.30;99.90;;;;;;5094710;28;20475;-80
2021/03/16 05:53:06;;;;;;;3.73;1.60;;;3.30;99.90;;;;;;5095055;28;20428;-81
2021/03/16 05:55:32;;;;;;;3.93;1.40;;;3.30;99.90;;;;;;5094731;28;20454;-81
2021/03/16 05:57:59;;;;;;;4.70;1.87;;;3.40;99.90;;;;;;5094473;28;20471;-81
2021/03/16 06:00:26;;;;;;;1.87;1.40;;;3.40;99.90;;;;;;5094825;28;20520;-81
2021/03/16 06:02:52;;;;;;;3.77;1.67;;;3.40;99.90;;;;;;5094718;28;20448;-81
2021/03/16 06:05:19;;;;;;;2.70;1.53;;;3.40;99.90;;;;;;5094661;28;20451;-78
2021/03/16 06:07:49;;;;;;;1.37;1.27;;;3.40;99.90;;;;;;5094620;28;20470;-79
2021/03/16 06:10:19;;;;;;;3.27;1.43;;;3.30;99.90;;;;;;5094529;28;20505;-78
2021/03/16 06:12:46;;;;;;;3.60;1.67;;;3.40;99.90;;;;;;5094657;28;20483;-78
2021/03/16 06:15:13;;;;;;;1.83;1.73;;;3.40;99.90;;;;;;5094200;28;20825;-78
2021/03/16 06:17:46;;;;;;;3.20;1.43;;;3.50;99.90;;;;;;5094286;28;20593;-78
2021/03/16 06:20:26;;;;;;;3.87;1.73;;;3.50;99.90;;;;;;5094453;28;20455;-78
2021/03/16 06:23:08;;;;;;;7.53;1.77;;;3.50;99.90;;;;;;5094606;28;20438;-84
2021/03/16 06:25:37;;;;;;;3.00;1.80;;;3.50;99.90;;;;;;5094450;28;20482;-86
2021/03/16 06:28:05;;;;;;;4.40;1.57;;;3.50;99.90;;;;;;5094396;28;20463;-85
2021/03/16 06:30:31;;;;;;;2.60;1.50;;;3.50;99.90;;;;;;5094192;28;20476;-84
2021/03/16 06:32:58;;;;;;;2.00;1.13;;;3.60;99.90;;;;;;5094144;28;20441;-84
2021/03/16 06:35:25;;;;;;;2.47;1.83;;;3.60;99.90;;;;;;5093772;28;20943;-84
2021/03/16 06:38:02;;;;;;;2.40;1.83;;;3.60;99.90;;;;;;5093710;28;21001;-84
2021/03/16 06:40:29;;;;;;;2.80;1.60;;;3.70;99.90;;;;;;5094057;28;20440;-84
2021/03/16 06:43:07;;;;;;;2.23;1.77;;;3.70;99.90;;;;;;5093993;28;20452;-84
2021/03/16 06:45:35;;;;;;;3.23;1.70;;;3.70;99.90;;;;;;5094059;28;20458;-84
2021/03/16 06:48:13;;;;;;;3.60;1.63;;;3.70;99.90;;;;;;5093903;28;20481;-77
2021/03/16 06:50:40;;;;;;;1.87;1.47;;;3.70;99.90;;;;;;5093298;28;20510;-78
2021/03/16 06:53:12;;;;;;;5.40;1.93;;;3.70;99.90;;;;;;5094348;28;20439;-77
2021/03/16 06:55:38;;;;;;;1.73;1.43;;;3.70;99.90;;;;;;5093411;28;20915;-77
2021/03/16 06:58:07;;;;;;;5.10;1.60;;;3.80;99.90;;;;;;5093493;28;20982;-77
2021/03/16 07:00:33;;;;;;;5.67;1.97;;;3.80;99.90;;;;;;5093745;28;20443;-77
2021/03/16 07:02:59;;;;;;;4.17;2.30;;;3.80;99.90;;;;;;5093706;28;20448;-77
2021/03/16 07:05:27;;;;;;;7.53;3.30;;;3.80;99.90;;;;;;5093634;28;20490;-78
2021/03/16 07:07:53;;;;;;;5.73;2.27;;;3.80;99.90;;;;;;5092759;28;20522;-78
2021/03/16 07:10:22;;;;;;;3.60;1.97;;;3.80;99.90;;;;;;5093509;28;20480;-78
2021/03/16 07:12:49;;;;;;;3.90;1.47;;;3.90;99.90;;;;;;5093295;28;20955;-78
2021/03/16 07:15:17;;;;;;;7.23;1.90;;;4.00;99.90;;;;;;5093639;28;20448;-77
2021/03/16 07:17:44;;;;;;;3.33;1.70;;;4.00;99.90;;;;;;5093429;28;20468;-78
2021/03/16 07:20:12;;;;;;;3.47;1.73;;;4.00;99.90;;;;;;5093461;28;20459;-77
2021/03/16 07:22:46;;;;;;;3.33;1.40;;;4.10;99.90;;;;;;5093454;28;20444;-78
2021/03/16 07:25:14;;;;;;;5.13;1.90;;;4.10;99.90;;;;;;5093444;28;20482;-77
2021/03/16 07:27:41;;;;;;;6.20;1.90;;;4.10;99.90;;;;;;5093336;28;20517;-78
2021/03/16 07:30:10;;;;;;;4.50;2.00;;;4.00;99.90;;;;;;5093369;28;20475;-85
2021/03/16 07:32:38;;;;;;;3.83;1.77;;;4.00;99.90;;;;;;5093043;28;20440;-84
2021/03/16 07:35:05;;;;;;;5.83;1.90;;;4.00;99.90;;;;;;5093103;28;21009;-84
2021/03/16 07:37:34;;;;;;;3.77;1.30;;;4.00;99.90;;;;;;5093536;28;20817;-84
2021/03/16 07:40:01;;;;;;;5.63;2.00;;;4.00;99.90;;;;;;5093258;28;20467;-84
2021/03/16 07:42:29;;;;;;;4.40;1.60;;;4.10;99.90;;;;;;5093226;28;20448;-84
2021/03/16 07:44:56;;;;;;;8.37;2.23;;;4.10;99.90;;;;;;5092939;28;20452;-77
2021/03/16 07:47:33;;;;;;;1.77;1.50;;;4.20;99.90;;;;;;5093161;28;20479;-77
2021/03/16 07:50:06;;;;;;;6.97;2.37;;;4.30;99.90;;;;;;5093110;28;20522;-77
2021/03/16 07:52:44;;;;;;;4.60;2.10;;;4.60;99.90;;;;;;5092800;28;20471;-77
2021/03/16 07:55:12;;;;;;;1.87;1.10;;;4.80;99.90;;;;;;5092955;28;20919;-77
2021/03/16 07:57:38;;;;;;;4.00;1.27;;;4.90;99.90;;;;;;5093250;28;20456;-80
2021/03/16 08:00:06;;;;;;;3.83;1.30;;;4.90;99.90;;;;;;5092921;28;20960;-84
2021/03/16 08:02:35;;;;;;;5.53;1.40;;;5.10;99.90;;;;;;5093164;28;20437;-84
2021/03/16 08:05:01;;;;;;;4.37;1.60;;;5.30;99.90;;;;;;5093196;28;20435;-77
2021/03/16 08:07:30;;;;;;;3.43;1.33;;;5.40;99.90;;;;;;5092824;28;20978;-77
2021/03/16 08:09:57;;;;;;;2.40;1.20;;;5.60;99.90;;;;;;5093093;28;20476;-77
2021/03/16 08:12:25;;;;;;;4.90;1.30;;;5.80;99.90;;;;;;5092808;28;20908;-77
2021/03/16 08:14:52;;;;;;;4.27;1.70;;;5.90;99.90;;;;;;5093104;28;20432;-84
2021/03/16 08:17:28;;;;;;;5.00;1.57;;;6.10;99.90;;;;;;5093048;28;20555;-77
2021/03/16 08:19:55;;;;;;;3.27;2.00;;;6.20;99.90;;;;;;5095649;28;20620;-84
2021/03/16 08:22:23;;;;;;;2.77;1.43;;;6.40;99.90;;;;;;5097050;28;20542;-84
2021/03/16 08:24:52;;;;;;;2.33;1.50;;;6.60;99.90;;;;;;5096825;28;20431;-84
2021/03/16 08:27:19;;;;;;;4.40;1.90;;;7.00;99.90;;;;;;5096623;28;20819;-77
2021/03/16 08:29:47;;;;;;;2.87;1.53;;;7.30;99.90;;;;;;5096629;28;20487;-77
2021/03/16 08:32:15;;;;;;;3.77;1.43;;;7.40;99.90;;;;;;5096863;28;20424;-77
2021/03/16 08:34:42;;;;;;;3.77;1.70;;;7.50;99.90;;;;;;5096804;28;20424;-84
2021/03/16 08:37:19;;;;;;;2.07;1.23;;;7.40;99.90;;;;;;5096419;28;20517;-79
2021/03/16 08:39:45;;;;;;;2.53;1.37;;;7.20;99.90;;;;;;5096238;28;20435;-78
2021/03/16 08:42:16;;;;;;;2.17;1.77;;;7.00;99.90;;;;;;5096718;28;20438;-82
2021/03/16 08:44:42;;;;;;;4.50;1.40;;;6.90;99.90;;;;;;5096513;28;20433;-79
2021/03/16 08:47:10;;;;;;;3.90;1.77;;;6.80;99.90;;;;;;5096554;28;20504;-79
2021/03/16 08:49:39;;;;;;;5.47;1.90;;;6.70;99.90;;;;;;5096344;28;20892;-79
2021/03/16 08:52:14;;;;;;;3.53;1.50;;;6.60;99.90;;;;;;5096184;28;20483;-79
2021/03/16 08:54:41;;;;;;;2.60;1.50;;;6.50;99.90;;;;;;5096352;28;20412;-82
2021/03/16 08:57:08;;;;;;;4.50;1.83;;;6.50;99.90;;;;;;5096254;28;20520;-79
2021/03/16 08:59:35;;;;;;;6.03;1.77;;;6.40;99.90;;;;;;5095982;28;20436;-84
2021/03/16 09:02:01;;;;;;;2.07;1.40;;;6.30;99.90;;;;;;5096383;28;20517;-79
2021/03/16 09:04:28;;;;;;;9.27;2.80;;;6.10;99.90;;;;;;5096220;28;20543;-84
2021/03/16 09:06:54;;;;;;;4.47;1.80;;;6.00;99.90;;;;;;5095948;28;20983;-79
2021/03/16 09:09:25;;;;;;;1.93;1.40;;;6.00;99.90;;;;;;5095769;28;20490;-83
2021/03/16 09:11:52;;;;;;;7.40;2.13;;;5.80;99.90;;;;;;5096231;28;20428;-84
2021/03/16 09:14:20;;;;;;;3.33;2.10;;;5.70;99.90;;;;;;5095648;28;20498;-79
2021/03/16 09:16:49;;;;;;;2.93;1.73;;;5.70;99.90;;;;;;5095742;28;20471;-78
2021/03/16 09:19:18;;;;;;;5.20;2.03;;;5.60;99.90;;;;;;5095363;28;20943;-79
2021/03/16 09:21:53;;;;;;;2.23;1.77;;;5.60;99.90;;;;;;5095683;28;20448;-78
2021/03/16 09:24:22;;;;;;;4.80;1.60;;;5.50;99.90;;;;;;5095610;28;20438;-78
2021/03/16 09:26:57;;;;;;;3.53;2.00;;;5.50;99.90;;;;;;5095442;28;20471;-78
2021/03/16 09:29:26;;;;;;;2.90;1.50;;;5.60;99.90;;;;;;5095115;28;20482;-78
2021/03/16 09:31:53;;;;;;;2.13;2.03;;;5.50;99.90;;;;;;5094476;28;20448;-78
2021/03/16 09:34:20;;;;;;;2.90;1.60;;;5.50;99.90;;;;;;5095371;28;20442;-78
2021/03/16 09:36:56;;;;;;;3.67;1.87;;;5.40;99.90;;;;;;5094889;28;20841;-78
2021/03/16 09:39:23;;;;;;;2.57;2.03;;;5.30;99.90;;;;;;5094954;28;20845;-78
2021/03/16 09:41:53;;;;;;;3.00;1.87;;;5.20;99.90;;;;;;5095234;28;20436;-78
2021/03/16 09:44:28;;;;;;;5.90;2.30;;;5.20;99.90;;;;;;5095173;28;20481;-78
2021/03/16 09:46:55;;;;;;;4.60;2.10;;;5.00;99.90;;;;;;5094717;28;20448;-78
2021/03/16 09:49:30;;;;;;;2.73;2.00;;;4.90;99.90;;;;;;5095432;28;20874;-78
2021/03/16 09:52:01;;;;;;;7.80;2.73;;;4.90;99.90;;;;;;5094650;28;20524;-77
2021/03/16 09:54:33;;;;;;;7.17;2.67;;;4.90;99.90;;;;;;5095006;28;20436;-78
2021/03/16 09:57:04;;;;;;;6.23;2.87;;;5.00;99.90;;;;;;5094867;28;20464;-78
2021/03/16 09:59:34;;;;;;;5.37;2.47;;;5.10;99.90;;;;;;5094606;28;20903;-78
2021/03/16 10:02:02;;;;;;;4.70;2.20;;;5.10;99.90;;;;;;5094844;28;20435;-78
2021/03/16 10:04:29;;;;;;;4.50;2.57;;;5.30;99.90;;;;;;5094830;28;20437;-79
2021/03/16 10:06:56;;;;;;;4.57;2.23;;;5.40;99.90;;;;;;5094834;28;20613;-79
2021/03/16 10:09:25;;;;;;;5.53;2.20;;;5.60;99.90;;;;;;5094770;28;20471;-79
2021/03/16 10:11:52;;;;;;;9.10;2.80;;;5.90;99.90;;;;;;5094600;28;20489;-79
2021/03/16 10:14:25;;;;;;;3.87;2.30;;;6.10;99.90;;;;;;5094590;28;20440;-78
2021/03/16 10:16:54;;;;;;;4.03;2.20;;;6.20;99.90;;;;;;5094194;28;20498;-78
2021/03/16 10:19:22;;;;;;;4.50;2.20;;;6.10;99.90;;;;;;5094529;28;20431;-79
2021/03/16 10:21:48;;;;;;;7.90;2.70;;;6.10;99.90;;;;;;5094497;28;20451;-78
2021/03/16 10:24:24;;;;;;;5.43;2.03;;;6.20;99.90;;;;;;5094398;28;20440;-79
2021/03/16 10:26:55;;;;;;;6.67;3.87;;;6.20;99.90;;;;;;5093973;28;20489;-78
2021/03/16 10:29:21;;;;;;;6.23;2.97;;;6.20;99.90;;;;;;5094154;28;20817;-78
2021/03/16 10:31:47;;;;;;;4.63;1.90;;;6.10;99.90;;;;;;5094179;28;20473;-79
2021/03/16 10:34:13;;;;;;;6.40;2.07;;;6.30;99.90;;;;;;5094018;28;20412;-79
2021/03/16 10:36:41;;;;;;;6.37;2.23;;;6.50;99.90;;;;;;5094212;28;20472;-83
2021/03/16 10:39:07;;;;;;;3.23;2.13;;;6.60;99.90;;;;;;5094214;28;20456;-83
2021/03/16 10:41:33;;;;;;;3.10;2.00;;;6.80;99.90;;;;;;5094143;28;20452;-79
2021/03/16 10:44:00;;;;;;;3.50;2.10;;;6.90;99.90;;;;;;5093605;28;20424;-79
2021/03/16 10:46:26;;;;;;;5.80;3.03;;;7.00;99.90;;;;;;5093576;28;20471;-84
2021/03/16 10:48:52;;;;;;;7.00;2.23;;;7.10;99.90;;;;;;5093623;28;20943;-84
2021/03/16 10:51:19;;;;;;;3.67;2.07;;;7.30;99.90;;;;;;5093364;28;21010;-83
2021/03/16 10:53:46;;;;;;;3.97;1.90;;;7.50;99.90;;;;;;5093905;28;20531;-83
2021/03/16 10:56:12;;;;;;;5.90;1.93;;;7.50;99.90;;;;;;5093828;28;20472;-84
2021/03/16 10:58:38;;;;;;;3.23;1.57;;;8.00;99.90;;;;;;5093890;28;20485;-84
2021/03/16 11:01:05;;;;;;;2.83;2.00;;;8.80;99.90;;;;;;5095828;28;20814;-84
2021/03/16 11:03:33;;;;;;;4.40;1.70;;;9.20;99.90;;;;;;5093768;28;20474;-84
2021/03/16 11:05:59;;;;;;;3.57;2.33;;;9.20;99.90;;;;;;5092457;28;21009;-84
2021/03/16 11:08:26;;;;;;;4.10;1.67;;;9.20;99.90;;;;;;5093710;28;20436;-84
2021/03/16 11:10:53;;;;;;;2.70;1.90;;;9.10;99.90;;;;;;5093618;28;20468;-84
2021/03/16 11:13:19;;;;;;;3.67;1.70;;;9.10;99.90;;;;;;5093440;28;20473;-84
2021/03/16 11:15:46;;;;;;;4.20;1.93;;;9.00;99.90;;;;;;5093639;28;20452;-84
2021/03/16 11:18:12;;;;;;;7.43;1.70;;;9.10;99.90;;;;;;5093291;28;20907;-84
2021/03/16 11:20:38;;;;;;;5.47;1.87;;;9.20;99.90;;;;;;5093528;28;20440;-84
2021/03/16 11:23:05;;;;;;;1.60;1.50;;;9.00;99.90;;;;;;5093586;28;20432;-84
2021/03/16 11:25:31;;;;;;;1.63;1.53;;;8.90;99.90;;;;;;5093567;28;20443;-84
2021/03/16 11:27:58;;;;;;;1.77;1.60;;;8.80;99.90;;;;;;5093434;28;20467;-84
2021/03/16 11:30:26;;;;;;;2.70;1.70;;;8.50;99.90;;;;;;5093532;28;20459;-84
2021/03/16 11:32:52;;;;;;;4.03;1.53;;;8.20;99.90;;;;;;5093847;28;20486;-84
2021/03/16 11:35:18;;;;;;;3.03;1.30;;;7.90;99.90;;;;;;5093139;28;20424;-84
2021/03/16 11:37:45;;;;;;;1.60;1.40;;;7.80;99.90;;;;;;5093357;28;20521;-84
2021/03/16 11:40:12;;;;;;;3.00;1.37;;;7.70;99.90;;;;;;5093425;28;20482;-84
2021/03/16 11:42:38;;;;;;;1.97;1.77;;;7.60;99.90;;;;;;5093395;28;20428;-84
2021/03/16 11:45:07;;;;;;;1.47;1.37;;;7.60;99.90;;;;;;5093408;28;20424;-84
2021/03/16 11:47:33;;;;;;;3.07;1.37;;;7.70;99.90;;;;;;5093323;28;20468;-84
2021/03/16 11:50:00;;;;;;;2.37;1.20;;;7.70;99.90;;;;;;5093200;28;20472;-84
2021/03/16 11:52:26;;;;;;;3.93;1.30;;;7.80;99.90;;;;;;5094077;28;20529;-84
2021/03/16 11:54:52;;;;;;;6.00;1.43;;;8.10;99.90;;;;;;5095077;28;20435;-84
2021/03/16 11:57:18;;;;;;;1.43;1.33;;;8.10;99.90;;;;;;5097204;28;20460;-84
2021/03/16 11:59:44;;;;;;;3.90;1.10;;;8.30;99.90;;;;;;5097290;28;20435;-84
2021/03/16 12:02:12;;;;;;;1.90;1.37;;;8.40;99.90;;;;;;5097210;28;20478;-84
2021/03/16 12:04:38;;;;;;;4.50;1.43;;;8.40;99.90;;;;;;5097222;28;20437;-84
2021/03/16 12:07:04;;;;;;;4.27;1.53;;;8.30;98.40;;;;;;5097257;28;20520;-78
2021/03/16 12:09:30;;;;;;;2.90;1.10;;;8.40;96.90;;;;;;5096967;28;20498;-78
2021/03/16 12:11:56;;;;;;;4.27;1.57;;;8.40;97.10;;;;;;5096979;28;20441;-78
2021/03/16 12:14:23;;;;;;;3.30;1.30;;;8.50;96.60;;;;;;5096981;28;20443;-78
2021/03/16 12:16:49;;;;;;;1.60;1.00;;;8.60;97.00;;;;;;5096811;28;20472;-78
2021/03/16 12:19:16;;;;;;;1.20;1.10;;;8.50;96.30;;;;;;5096585;28;20980;-78
2021/03/16 12:21:42;;;;;;;1.90;1.30;;;8.30;96.00;;;;;;5097124;28;20730;-78
2021/03/16 12:24:10;;;;;;;3.37;1.30;;;8.10;97.40;;;;;;5096359;28;20432;-78
2021/03/16 12:26:37;;;;;;;3.20;1.57;;;8.00;95.80;;;;;;5096660;28;20563;-78
2021/03/16 12:29:04;;;;;;;2.83;1.00;;;7.90;97.00;;;;;;5096388;28;20485;-79
2021/03/16 12:31:30;;;;;;;2.90;1.50;;;7.90;97.70;;;;;;5096105;28;20475;-78
2021/03/16 12:33:58;;;;;;;1.83;0.90;;;8.00;98.00;;;;;;5097021;28;20494;-79
2021/03/16 12:36:25;;;;;;;0.87;0.70;;;8.00;97.60;;;;;;5096484;28;20478;-79
2021/03/16 12:38:51;;;;;;;5.80;1.10;;;8.20;98.40;;;;;;5096471;28;20789;-80
2021/03/16 12:41:17;;;;;;;3.63;1.00;;;8.20;97.60;;;;;;5096429;28;20451;-78
2021/03/16 12:43:43;;;;;;;2.07;1.13;;;8.20;96.60;;;;;;5096379;28;20447;-77
2021/03/16 12:46:10;;;;;;;2.53;0.87;;;8.30;95.70;;;;;;5096468;28;20874;-77
2021/03/16 12:48:36;;;;;;;2.77;0.90;;;8.30;94.30;;;;;;5096336;28;20560;-77
2021/03/16 12:51:02;;;;;;;2.70;0.80;;;8.30;93.70;;;;;;5095902;28;20495;-77
2021/03/16 12:53:29;;;;;;;4.23;1.07;;;8.30;92.40;;;;;;5096185;28;20436;-77
2021/03/16 12:55:56;;;;;;;2.50;1.00;;;8.40;92.60;;;;;;5095747;28;20444;-77
2021/03/16 12:58:22;;;;;;;4.63;1.00;;;8.30;92.80;;;;;;5095858;28;20413;-77
2021/03/16 13:00:48;;;;;;;1.23;0.87;;;8.30;92.00;;;;;;5096041;28;20497;-77